createdAt,value
2022-11-18T00:02:56.770Z,99251.65
2022-11-18T00:09:21.185Z,99243.75
2022-11-18T00:15:45.617Z,99247.15
2022-11-18T00:22:09.895Z,99246.35
2022-11-18T00:28:34.177Z,99240.35
2022-11-18T00:34:58.491Z,99243.36
2022-11-18T00:41:22.818Z,99237.19
2022-11-18T00:47:47.144Z,99232.09
2022-11-18T00:54:11.434Z,99234.60
2022-11-18T01:00:35.866Z,99231.41
2022-11-18T01:07:00.299Z,99228.76
2022-11-18T01:13:39.836Z,99223.58
2022-11-18T01:20:04.159Z,99213.33
2022-11-18T01:26:28.443Z,99215.05
2022-11-18T01:32:52.795Z,99217.13
2022-11-18T01:39:17.469Z,99215.29
2022-11-18T01:46:12.650Z,99209.94
2022-11-18T01:52:37.007Z,99200.09
2022-11-18T01:59:07.163Z,99202.46
2022-11-18T02:05:31.594Z,99199.16
2022-11-18T02:12:11.304Z,99199.45
2022-11-18T02:18:47.751Z,99192.96
2022-11-18T02:25:15.058Z,99194.96
2022-11-18T02:32:00.568Z,99194.52
2022-11-18T02:38:27.618Z,99195.48
2022-11-18T02:44:55.085Z,99196.30
2022-11-18T02:51:19.503Z,99188.37
2022-11-18T02:57:43.823Z,99185.69
2022-11-18T03:04:08.158Z,99178.33
2022-11-18T03:10:32.460Z,99174.96
2022-11-18T03:16:55.842Z,99166.22
2022-11-18T03:23:31.972Z,99167.66
2022-11-18T03:30:02.190Z,99158.36
2022-11-18T03:36:26.478Z,99150.54
2022-11-18T03:42:53.337Z,99152.40
2022-11-18T03:49:20.299Z,99142.72
2022-11-18T03:55:44.671Z,99144.41
2022-11-18T04:02:21.006Z,99144.27
2022-11-18T04:08:54.165Z,99151.22
2022-11-18T04:15:18.476Z,99151.91
2022-11-18T04:21:42.759Z,99151.94
2022-11-18T04:28:07.197Z,99146.02
2022-11-18T04:34:31.605Z,99142.60
2022-11-18T04:40:55.904Z,99143.63
2022-11-18T04:47:23.013Z,99139.88
2022-11-18T04:53:47.702Z,99137.69
2022-11-18T05:00:12.224Z,99137.89
2022-11-18T05:06:36.515Z,99137.60
2022-11-18T05:13:10.037Z,99136.31
2022-11-18T05:19:34.367Z,99139.59
2022-11-18T05:26:02.409Z,99132.29
2022-11-18T05:32:27.176Z,99128.71
2022-11-18T05:38:51.480Z,99121.59
2022-11-18T05:45:15.990Z,99122.16
2022-11-18T05:51:40.280Z,99123.59
2022-11-18T05:58:04.704Z,99123.53
2022-11-18T06:04:29.489Z,99123.54
2022-11-18T06:10:53.988Z,99120.20
2022-11-18T06:17:18.263Z,99122.00
2022-11-18T06:23:42.527Z,99127.85
2022-11-18T06:30:06.906Z,99132.96
2022-11-18T06:36:31.210Z,99136.99
2022-11-18T06:42:54.244Z,99139.87
2022-11-18T06:49:18.776Z,99147.84
2022-11-18T06:55:43.513Z,99147.86
2022-11-18T07:02:13.714Z,99151.99
2022-11-18T07:08:38.337Z,99152.77
2022-11-18T07:15:02.611Z,99160.89
2022-11-18T07:21:27.030Z,99165.81
2022-11-18T07:27:51.412Z,99177.15
2022-11-18T07:34:15.840Z,99185.26
2022-11-18T07:40:40.136Z,99186.82
2022-11-18T07:47:16.494Z,99190.23
2022-11-18T07:53:40.887Z,99184.65
2022-11-18T08:00:05.208Z,99189.20
2022-11-18T08:06:29.808Z,99189.13
2022-11-18T08:12:54.179Z,99198.98
2022-11-18T08:19:18.817Z,99209.23
2022-11-18T08:25:43.539Z,99213.67
2022-11-18T08:32:19.819Z,99216.88
2022-11-18T08:38:44.145Z,99212.36
2022-11-18T08:45:08.451Z,99213.34
2022-11-18T08:51:32.743Z,99215.35
2022-11-18T08:57:57.039Z,99217.77
2022-11-18T09:04:21.058Z,99216.17
2022-11-18T09:10:45.592Z,99209.58
2022-11-18T09:17:09.882Z,99214.05
2022-11-18T09:23:52.475Z,99211.87
2022-11-18T09:30:16.768Z,99213.09
2022-11-18T09:36:44.021Z,99215.21
2022-11-18T09:43:20.246Z,99204.89
2022-11-18T09:49:44.646Z,99200.89
2022-11-18T09:56:15.287Z,99195.30
2022-11-18T10:02:39.603Z,99193.40
2022-11-18T10:09:12.843Z,99196.41
2022-11-18T10:15:46.153Z,99196.61
2022-11-18T10:22:21.033Z,99193.79
2022-11-18T10:29:03.445Z,99198.30
2022-11-18T10:35:27.794Z,99201.90
2022-11-18T10:41:54.908Z,99212.15
2022-11-18T10:48:25.187Z,99219.17
2022-11-18T10:54:55.467Z,99222.02
2022-11-18T11:01:18.251Z,99225.59
2022-11-18T11:07:42.632Z,99233.45
2022-11-18T11:14:07.247Z,99237.46
2022-11-18T11:20:32.815Z,99248.26
2022-11-18T11:34:04.128Z,99249.90
2022-11-18T11:40:25.461Z,99252.75
2022-11-18T11:46:52.829Z,99250.53
2022-11-18T11:53:17.172Z,99248.48
2022-11-18T11:59:47.614Z,99253.06
2022-11-18T12:06:17.952Z,99252.79
2022-11-18T12:12:57.036Z,99252.36
2022-11-18T12:19:39.734Z,99248.27
2022-11-18T12:26:21.081Z,99247.64
2022-11-18T12:32:45.385Z,99252.92
2022-11-18T12:39:09.786Z,99255.83
2022-11-18T12:45:34.200Z,99259.94
2022-11-18T12:51:58.595Z,99257.76
2022-11-18T12:58:31.309Z,99252.95
2022-11-18T13:04:55.621Z,99258.64
2022-11-18T13:11:21.185Z,99253.19
2022-11-18T13:18:12.692Z,99256.46
2022-11-18T13:24:37.030Z,99254.63
2022-11-18T13:31:07.405Z,99253.59
2022-11-18T13:37:31.912Z,99253.79
2022-11-18T13:43:56.306Z,99261.38
2022-11-18T13:50:23.147Z,99256.91
2022-11-18T13:57:02.494Z,99258.38
2022-11-18T14:03:26.827Z,99264.91
2022-11-18T14:10:09.504Z,99269.83
2022-11-18T14:16:33.934Z,99270.76
2022-11-18T14:22:59.355Z,99280.61
2022-11-18T14:29:39.018Z,99284.80
2022-11-18T14:36:03.406Z,99292.83
2022-11-18T14:42:27.029Z,99299.08
2022-11-18T14:48:51.295Z,99302.31
2022-11-18T14:55:15.589Z,99309.05
2022-11-18T15:01:39.980Z,99315.79
2022-11-18T15:08:04.364Z,99317.96
2022-11-18T15:14:28.643Z,99319.75
2022-11-18T15:20:53.078Z,99325.29
2022-11-18T15:27:17.387Z,99334.09
2022-11-18T15:33:40.837Z,99336.05
2022-11-18T15:40:07.855Z,99344.50
2022-11-18T15:46:32.235Z,99348.86
2022-11-18T15:52:56.560Z,99353.70
2022-11-18T15:59:21.093Z,99358.20
2022-11-18T16:05:45.501Z,99372.22
2022-11-18T16:12:11.152Z,99379.36
2022-11-18T16:18:40.570Z,99385.44
2022-11-18T16:25:05.378Z,99402.09
2022-11-18T16:31:28.220Z,99403.76
2022-11-18T16:37:53.100Z,99411.67
2022-11-18T16:44:17.437Z,99414.55
2022-11-18T16:50:41.796Z,99418.86
2022-11-18T16:57:06.232Z,99420.63
2022-11-18T17:03:30.545Z,99421.15
2022-11-18T17:09:54.963Z,99423.59
2022-11-18T17:16:19.267Z,99430.29
2022-11-18T17:22:36.148Z,99430.86
2022-11-18T17:29:00.257Z,99429.45
2022-11-18T17:35:24.542Z,99438.38
2022-11-18T17:41:47.256Z,99439.73
2022-11-18T17:48:11.717Z,99440.66
2022-11-18T17:54:36.098Z,99443.92
2022-11-18T18:01:00.710Z,99448.37
2022-11-18T18:07:25.415Z,99449.17
2022-11-18T18:13:48.454Z,99457.61
2022-11-18T18:20:12.848Z,99456.60
2022-11-18T18:26:37.147Z,99464.27
2022-11-18T18:32:52.565Z,99466.50
2022-11-18T18:39:17.581Z,99468.65
2022-11-18T18:45:40.371Z,99473.48
2022-11-18T18:52:07.629Z,99474.41
2022-11-18T18:58:31.948Z,99477.26
2022-11-18T19:04:56.383Z,99484.54
2022-11-18T19:11:00.732Z,99491.86
2022-11-18T19:17:25.116Z,99484.67
2022-11-18T19:23:49.523Z,99480.66
2022-11-18T19:30:13.845Z,99488.61
2022-11-18T19:36:38.391Z,99494.84
2022-11-18T19:42:51.443Z,99493.16
2022-11-18T19:49:15.805Z,99506.19
2022-11-18T19:55:40.222Z,99508.50
2022-11-18T20:02:10.419Z,99512.77
2022-11-18T20:08:34.795Z,99519.03
2022-11-18T20:14:59.138Z,99523.63
2022-11-18T20:21:23.423Z,99527.64
2022-11-18T20:27:47.757Z,99534.36
2022-11-18T20:34:17.731Z,99540.83
2022-11-18T20:40:42.005Z,99541.61
2022-11-18T20:47:05.242Z,99539.00
2022-11-18T20:53:29.662Z,99537.84
2022-11-18T20:59:47.444Z,99543.77
2022-11-18T21:06:14.311Z,99553.58
2022-11-18T21:12:39.108Z,99555.73
2022-11-18T21:19:03.438Z,99562.08
2022-11-18T21:25:30.629Z,99557.97
2022-11-18T21:31:54.942Z,99559.23
2022-11-18T21:38:02.085Z,99563.49
2022-11-18T21:44:26.484Z,99566.05
2022-11-18T21:50:50.830Z,99567.50
2022-11-18T21:57:17.801Z,99582.08
2022-11-18T22:03:41.203Z,99588.55
2022-11-18T22:09:55.484Z,99586.13
2022-11-18T22:16:10.084Z,99588.34
2022-11-18T22:22:34.211Z,99593.99
2022-11-18T22:28:58.565Z,99589.84
2022-11-18T22:35:12.964Z,99594.00
2022-11-18T22:41:41.876Z,99594.88
2022-11-18T22:48:06.217Z,99596.25
2022-11-18T22:54:38.930Z,99602.33
2022-11-18T23:01:04.223Z,99605.77
2022-11-18T23:07:28.635Z,99609.76
2022-11-18T23:13:51.486Z,99608.79
2022-11-18T23:20:15.868Z,99604.02
2022-11-18T23:26:48.915Z,99605.69
2022-11-18T23:33:13.257Z,99609.06
2022-11-18T23:39:37.570Z,99607.45
2022-11-18T23:46:01.895Z,99602.73
2022-11-18T23:52:26.340Z,99606.05
2022-11-18T23:58:50.706Z,99609.61
